Time;durP1;ratioP1;P1;durP2;ratioP2;P2;SDS_P1;SDS_P2;PMS_P1;PMS_P2;Temp;Humidity;BMP_temperature;BMP_pressure;BME280_temperature;BME280_humidity;BME280_pressure;Samples;Min_cycle;Max_cycle;Signal;HPM_P1;HPM_P2
2021/09/05 00:05:32;;;;;;;8.00;5.93;;;8.40;99.90;;;9.20;100.00;95226.00;2388027;55;34724;-63
2021/09/05 00:08:18;;;;;;;7.43;5.40;;;8.30;99.90;;;9.05;100.00;95235.00;2344496;57;27233;-64
2021/09/05 00:14:01;;;;;;;6.60;5.60;;;8.40;99.90;;;9.26;100.00;95228.00;2371514;55;34041;-64
2021/09/05 00:16:48;;;;;;;7.57;5.43;;;8.40;99.90;;;8.99;100.00;95237.00;2155064;57;26699;-63
2021/09/05 00:19:34;;;;;;;6.10;5.30;;;8.40;99.90;;;8.95;100.00;95236.00;2373185;57;26744;-63
2021/09/05 00:22:20;;;;;;;6.67;5.50;;;8.50;99.90;;;9.03;100.00;95229.00;2365006;57;26668;-63
2021/09/05 00:28:03;;;;;;;8.33;5.40;;;8.40;99.90;;;8.93;100.00;95225.00;2385451;55;34183;-63
2021/09/05 00:30:50;;;;;;;7.37;5.60;;;8.40;99.90;;;9.01;100.00;95226.00;2376558;56;27025;-64
2021/09/05 00:33:37;;;;;;;7.97;5.73;;;8.40;99.90;;;9.03;100.00;95224.00;2161589;57;26657;-63
2021/09/05 00:39:19;;;;;;;6.70;5.20;;;8.30;99.90;;;8.90;100.00;95221.00;2409795;55;33071;-64
2021/09/05 00:42:06;;;;;;;7.07;5.63;;;8.10;99.90;;;8.83;100.00;95220.00;2365575;55;26137;-65
2021/09/05 00:44:54;;;;;;;6.57;5.40;;;8.10;99.90;;;8.85;100.00;95230.00;2153733;55;27113;-63
2021/09/05 00:47:40;;;;;;;6.03;5.03;;;8.10;99.90;;;8.81;100.00;95233.00;2360281;55;27300;-63
2021/09/05 00:50:28;;;;;;;6.73;5.20;;;8.00;99.90;;;8.76;100.00;95233.00;2189977;55;27342;-64
2021/09/05 00:59:11;;;;;;;8.00;5.60;;;8.00;99.90;;;8.73;100.00;95226.00;2384973;55;34646;-64
2021/09/05 01:01:57;;;;;;;6.67;5.30;;;7.90;99.90;;;8.62;100.00;95238.00;2181352;56;26628;-64
2021/09/05 01:07:39;;;;;;;6.13;5.10;;;7.80;99.90;;;8.52;100.00;95225.00;2440890;54;33485;-63
2021/09/05 01:10:26;;;;;;;6.07;5.10;;;7.70;99.90;;;8.27;100.00;95239.00;2428077;55;27131;-64
2021/09/05 01:16:25;;;;;;;6.73;5.23;;;7.60;99.90;;;8.31;100.00;95226.00;2390535;55;33622;-63
2021/09/05 01:19:16;;;;;;;6.53;5.17;;;7.80;99.90;;;8.39;100.00;95234.00;2370414;56;26300;-64
2021/09/05 01:24:59;;;;;;;6.50;5.00;;;7.60;99.90;;;8.30;100.00;95229.00;2417670;54;33075;-63
2021/09/05 01:30:42;;;;;;;9.10;5.40;;;7.50;99.90;;;8.22;100.00;95226.00;2329545;55;33841;-64
2021/09/05 01:33:29;;;;;;;6.57;5.10;;;7.50;99.90;;;7.98;100.00;95241.00;2346626;57;26586;-63
2021/09/05 01:36:16;;;;;;;8.70;5.23;;;7.40;99.90;;;8.03;100.00;95235.00;2127261;57;26682;-64
2021/09/05 01:39:03;;;;;;;7.73;5.00;;;7.60;99.90;;;8.13;100.00;95243.00;2332067;56;26833;-63
2021/09/05 01:41:50;;;;;;;5.97;5.00;;;7.60;99.90;;;8.43;100.00;95243.00;2129329;57;26995;-64
2021/09/05 01:44:36;;;;;;;6.07;5.30;;;7.60;99.90;;;8.37;100.00;95240.00;2334192;56;26771;-64
2021/09/05 01:47:22;;;;;;;7.70;5.37;;;7.50;99.90;;;8.20;100.00;95249.00;2130011;57;26669;-63
2021/09/05 01:50:11;;;;;;;6.50;4.77;;;7.40;99.90;;;8.03;100.00;95250.00;2110500;58;26843;-63
2021/09/05 01:52:58;;;;;;;8.00;5.00;;;7.40;99.90;;;8.14;100.00;95255.00;2117830;58;26803;-64
2021/09/05 01:55:44;;;;;;;5.57;4.27;;;7.50;99.90;;;8.26;100.00;95259.00;2103590;58;26881;-63
2021/09/05 01:58:31;;;;;;;5.13;4.47;;;7.50;99.90;;;8.32;100.00;95255.00;2310952;58;26609;-63
2021/09/05 02:01:17;;;;;;;6.63;4.43;;;7.50;99.90;;;8.19;100.00;95260.00;2113232;58;26808;-64
2021/09/05 02:07:01;;;;;;;5.30;4.23;;;7.50;99.90;;;8.35;100.00;95260.00;2390876;55;33938;-64
2021/09/05 02:09:47;;;;;;;6.00;4.80;;;7.40;99.90;;;8.19;100.00;95263.00;2157005;57;27105;-64
2021/09/05 02:15:30;;;;;;;7.03;5.50;;;7.30;99.90;;;8.24;100.00;95253.00;2419937;55;34264;-63
2021/09/05 02:21:14;;;;;;;5.97;5.23;;;7.30;99.90;;;8.12;100.00;95257.00;2390906;55;34351;-64
2021/09/05 02:24:01;;;;;;;5.60;4.50;;;7.30;99.90;;;8.01;100.00;95265.00;2157857;56;26799;-64
2021/09/05 02:26:47;;;;;;;6.40;4.77;;;7.20;99.90;;;8.05;100.00;95267.00;2159086;56;26870;-63
2021/09/05 02:29:33;;;;;;;8.47;5.37;;;7.20;99.90;;;7.97;100.00;95261.00;2382082;56;26173;-64
2021/09/05 02:32:20;;;;;;;6.87;5.27;;;7.10;99.90;;;7.81;100.00;95275.00;2172028;56;26729;-64
2021/09/05 02:35:10;;;;;;;7.50;5.60;;;7.00;99.90;;;7.67;100.00;95272.00;2172664;56;26799;-64
2021/09/05 02:37:56;;;;;;;10.20;6.50;;;7.00;99.90;;;7.56;100.00;95270.00;2171994;56;26191;-64
2021/09/05 02:40:43;;;;;;;7.40;5.93;;;7.00;99.90;;;7.63;100.00;95276.00;2171971;56;26362;-64
2021/09/05 02:43:29;;;;;;;7.13;5.60;;;7.00;99.90;;;7.66;100.00;95279.00;2171856;56;27035;-64
2021/09/05 02:46:16;;;;;;;7.00;5.70;;;7.10;99.90;;;7.89;100.00;95288.00;2162665;56;26707;-64
2021/09/05 02:49:03;;;;;;;7.60;5.60;;;7.00;99.90;;;7.70;100.00;95285.00;2192148;56;27841;-63
2021/09/05 02:54:46;;;;;;;9.73;6.30;;;7.00;99.90;;;7.63;100.00;95266.00;2359181;55;34335;-64
2021/09/05 02:57:32;;;;;;;10.43;5.87;;;6.90;99.90;;;7.56;100.00;95279.00;2117886;57;26647;-64
2021/09/05 03:03:16;;;;;;;8.67;5.93;;;6.90;99.90;;;7.66;100.00;95271.00;2421882;55;33872;-64
2021/09/05 03:06:02;;;;;;;8.43;5.90;;;6.90;99.90;;;7.54;100.00;95282.00;2193597;55;26793;-64
2021/09/05 03:08:49;;;;;;;7.50;5.60;;;6.90;99.90;;;7.56;100.00;95280.00;2372554;57;27138;-64
2021/09/05 03:14:33;;;;;;;6.67;5.63;;;7.00;99.90;;;8.01;100.00;95273.00;2444735;55;33684;-63
2021/09/05 03:17:19;;;;;;;6.30;5.17;;;7.00;99.90;;;7.77;100.00;95279.00;2194650;56;26275;-64
2021/09/05 03:20:10;;;;;;;6.60;5.30;;;6.90;99.90;;;7.68;100.00;95272.00;2411745;55;26732;-64
2021/09/05 03:22:56;;;;;;;7.00;5.30;;;6.90;99.90;;;7.68;100.00;95279.00;2179162;56;26745;-64
2021/09/05 03:25:43;;;;;;;8.83;5.40;;;6.90;99.90;;;7.61;100.00;95283.00;2396402;55;27194;-64
2021/09/05 03:28:30;;;;;;;6.70;5.37;;;6.80;99.90;;;7.45;100.00;95275.00;2181019;56;26744;-64
2021/09/05 03:34:12;;;;;;;8.00;5.30;;;6.70;99.90;;;7.54;100.00;95274.00;2438333;54;34115;-64
2021/09/05 03:36:58;;;;;;;10.00;5.60;;;6.80;99.90;;;7.48;100.00;95286.00;2205122;55;26822;-65
2021/09/05 03:39:45;;;;;;;6.47;5.63;;;6.80;99.90;;;7.48;100.00;95289.00;2215233;55;26844;-64
2021/09/05 03:42:31;;;;;;;6.97;5.60;;;6.70;99.90;;;7.31;100.00;95291.00;2439112;55;26896;-64
2021/09/05 03:48:15;;;;;;;7.30;4.97;;;6.70;99.90;;;7.68;100.00;95280.00;2411966;54;33864;-64
2021/09/05 03:51:01;;;;;;;7.10;5.73;;;6.90;99.90;;;7.52;100.00;95288.00;2401388;55;26708;-64
2021/09/05 03:53:48;;;;;;;9.20;5.40;;;6.80;99.90;;;7.61;100.00;95286.00;2190679;56;26780;-64
2021/09/05 03:56:34;;;;;;;7.63;5.60;;;6.80;99.90;;;7.58;100.00;95290.00;2185585;56;26137;-64
2021/09/05 03:59:21;;;;;;;6.70;5.30;;;6.70;99.90;;;7.54;100.00;95290.00;2401690;56;27077;-64
2021/09/05 04:02:07;;;;;;;7.73;5.17;;;6.70;99.90;;;7.44;100.00;95295.00;2185980;56;26696;-64
2021/09/05 04:04:54;;;;;;;8.03;5.87;;;6.60;99.90;;;7.21;100.00;95290.00;2402465;56;25789;-64
2021/09/05 04:10:38;;;;;;;5.93;5.10;;;6.60;99.90;;;7.41;100.00;95279.00;2407252;55;33813;-64
2021/09/05 04:13:25;;;;;;;6.33;5.07;;;6.80;99.90;;;7.38;100.00;95300.00;2198980;55;26750;-64
2021/09/05 04:16:11;;;;;;;9.30;4.80;;;6.70;99.90;;;7.33;100.00;95296.00;2451423;55;27150;-65
2021/09/05 04:21:55;;;;;;;6.30;4.73;;;6.50;99.90;;;7.33;100.00;95290.00;2430092;54;34640;-64
2021/09/05 04:24:41;;;;;;;5.50;4.63;;;6.40;99.90;;;7.09;100.00;95304.00;2431306;54;26196;-64
2021/09/05 04:27:27;;;;;;;6.10;4.80;;;6.40;99.90;;;6.95;100.00;95304.00;2456527;54;27140;-64
2021/09/05 04:30:14;;;;;;;8.23;4.93;;;6.30;99.90;;;6.83;100.00;95310.00;2237450;55;26778;-64
2021/09/05 04:33:00;;;;;;;5.97;5.07;;;6.20;99.90;;;6.67;100.00;95308.00;2466975;54;26613;-65
2021/09/05 04:35:47;;;;;;;6.93;5.70;;;6.20;99.90;;;6.54;100.00;95311.00;2239516;55;26782;-64
2021/09/05 04:38:33;;;;;;;6.43;5.20;;;6.20;99.90;;;6.68;100.00;95317.00;2468856;53;26737;-64
2021/09/05 04:41:19;;;;;;;5.90;4.63;;;6.20;99.90;;;6.91;100.00;95319.00;2240473;55;26816;-65
2021/09/05 04:47:02;;;;;;;5.63;4.63;;;6.20;99.90;;;7.14;100.00;95317.00;2433600;54;34530;-65
2021/09/05 04:49:48;;;;;;;6.40;4.87;;;6.20;99.90;;;6.92;100.00;95331.00;2429890;55;27172;-64
2021/09/05 04:52:35;;;;;;;7.23;5.00;;;6.20;99.90;;;6.74;100.00;95333.00;2210307;56;26641;-65
2021/09/05 04:55:22;;;;;;;6.70;5.17;;;6.20;99.90;;;6.72;100.00;95332.00;2429075;55;27369;-64
2021/09/05 04:58:08;;;;;;;9.90;6.13;;;6.20;99.90;;;6.84;100.00;95335.00;2202844;56;26768;-64
2021/09/05 05:00:54;;;;;;;7.20;5.77;;;6.30;99.90;;;7.10;100.00;95337.00;2421696;55;26692;-65
2021/09/05 05:03:41;;;;;;;7.63;5.90;;;6.40;99.90;;;7.28;100.00;95348.00;2206476;56;26643;-65
2021/09/05 05:06:27;;;;;;;7.43;5.20;;;6.50;99.90;;;7.33;100.00;95349.00;2430232;55;27331;-65
2021/09/05 05:09:16;;;;;;;6.33;5.30;;;6.60;99.90;;;7.31;100.00;95355.00;2429874;55;26632;-64
2021/09/05 05:12:02;;;;;;;6.20;4.87;;;6.60;99.90;;;7.34;100.00;95358.00;2185016;56;26685;-65
2021/09/05 05:14:49;;;;;;;6.07;4.77;;;6.60;99.90;;;7.22;100.00;95359.00;2407526;55;26091;-64
2021/09/05 05:17:36;;;;;;;7.10;5.23;;;6.60;99.90;;;7.30;100.00;95352.00;2200759;57;26733;-65
2021/09/05 05:20:22;;;;;;;6.17;5.03;;;6.70;99.90;;;7.30;100.00;95359.00;2426134;55;26765;-64
2021/09/05 05:23:08;;;;;;;12.63;4.83;;;6.80;99.90;;;7.41;100.00;95356.00;2205415;57;26744;-65
2021/09/05 05:25:55;;;;;;;5.70;4.80;;;6.90;99.90;;;7.54;100.00;95359.00;2424414;55;26674;-65
2021/09/05 05:31:38;;;;;;;4.97;4.37;;;6.90;99.90;;;7.77;100.00;95350.00;2416732;55;34357;-64
2021/09/05 05:34:25;;;;;;;5.30;4.47;;;6.80;99.90;;;7.65;100.00;95364.00;2129943;57;26658;-64
2021/09/05 05:37:11;;;;;;;5.13;4.60;;;7.00;99.90;;;7.57;100.00;95360.00;2348083;56;26150;-65
2021/09/05 05:39:58;;;;;;;5.07;4.27;;;7.00;99.90;;;7.62;100.00;95372.00;2136280;56;26580;-64
2021/09/05 05:42:44;;;;;;;6.57;4.50;;;7.10;99.90;;;7.72;100.00;95369.00;2345742;56;26537;-65
2021/09/05 05:45:30;;;;;;;5.03;4.30;;;7.20;99.90;;;7.80;100.00;95378.00;2162316;56;27299;-64
2021/09/05 05:51:14;;;;;;;8.30;4.20;;;7.40;99.90;;;8.16;100.00;95370.00;2386660;56;33848;-65
2021/09/05 05:54:00;;;;;;;5.20;4.70;;;7.50;99.90;;;8.15;100.00;95379.00;2374539;56;26674;-65
2021/09/05 05:56:46;;;;;;;6.47;4.77;;;7.60;99.90;;;8.23;100.00;95390.00;2162600;57;26135;-65
2021/09/05 05:59:33;;;;;;;6.47;4.60;;;7.70;99.90;;;8.40;100.00;95389.00;2373840;56;26704;-64
2021/09/05 06:02:20;;;;;;;5.97;4.27;;;7.90;99.90;;;8.53;100.00;95381.00;2165959;56;26656;-64
2021/09/05 06:05:08;;;;;;;5.40;4.90;;;8.00;99.90;;;8.62;100.00;95380.00;2168290;56;26621;-65
2021/09/05 06:07:55;;;;;;;5.20;4.70;;;8.10;99.90;;;8.79;100.00;95379.00;2389200;56;26810;-64
2021/09/05 06:10:42;;;;;;;8.43;5.80;;;8.20;99.90;;;8.89;100.00;95380.00;2171660;56;27271;-64
2021/09/05 06:13:28;;;;;;;6.07;4.90;;;8.40;99.90;;;9.05;100.00;95377.00;2387121;56;26774;-64
2021/09/05 06:16:15;;;;;;;5.60;4.97;;;8.60;99.90;;;9.28;100.00;95383.00;2167252;56;26756;-65
2021/09/05 06:19:01;;;;;;;5.20;4.60;;;8.70;99.90;;;9.46;100.00;95375.00;2170645;56;27290;-65
2021/09/05 06:24:45;;;;;;;5.50;5.00;;;9.10;99.90;;;9.86;100.00;95364.00;2444980;55;34257;-64
2021/09/05 06:27:31;;;;;;;5.80;5.07;;;9.20;99.90;;;9.86;100.00;95381.00;2204009;55;26110;-64
2021/09/05 06:30:17;;;;;;;5.33;4.77;;;9.40;99.90;;;10.02;100.00;95377.00;2404572;55;26617;-65
2021/09/05 06:33:04;;;;;;;5.60;5.10;;;9.60;99.90;;;10.21;100.00;95382.00;2163037;56;26244;-64
2021/09/05 06:35:50;;;;;;;6.70;5.80;;;9.80;99.90;;;10.43;100.00;95387.00;2161167;56;26752;-65
2021/09/05 06:38:36;;;;;;;7.37;6.37;;;10.10;99.90;;;10.90;100.00;95386.00;2389018;56;27775;-65
2021/09/05 06:41:23;;;;;;;6.80;5.60;;;10.60;99.90;;;11.85;100.00;95393.00;2383703;56;26678;-65
2021/09/05 06:44:09;;;;;;;6.17;4.77;;;12.40;99.90;;;14.15;100.00;95393.00;2160250;57;26932;-64
2021/09/05 06:46:56;;;;;;;4.70;4.10;;;14.70;99.90;;;17.06;100.00;95372.00;2159935;57;26816;-65
2021/09/05 06:49:42;;;;;;;4.30;3.90;;;17.00;99.90;;;19.89;100.00;95365.00;2164807;56;27328;-65
2021/09/05 06:55:27;;;;;;;4.97;4.07;;;20.80;99.90;;;24.19;100.00;95357.00;2473329;53;33909;-66
2021/09/05 06:58:13;;;;;;;5.57;4.47;;;22.30;99.90;;;25.10;100.00;95365.00;2231668;56;26774;-66
2021/09/05 07:01:00;;;;;;;4.00;3.65;;;22.70;99.90;;;24.71;100.00;95359.00;2469426;54;26586;-66
2021/09/05 07:06:45;;;;;;;4.40;4.00;;;23.40;99.90;;;25.53;100.00;95357.00;2422347;54;34253;-66
2021/09/05 07:12:28;;;;;;;4.20;3.80;;;23.90;99.90;;;26.36;100.00;95366.00;2381260;55;34370;-65
2021/09/05 07:18:11;;;;;;;4.25;3.83;;;24.20;99.90;;;27.64;94.11;95371.00;2343619;56;34213;-65
2021/09/05 07:20:57;;;;;;;4.40;4.00;;;24.80;99.90;;;27.69;88.61;95372.00;2119670;58;26727;-66
2021/09/05 07:23:43;;;;;;;4.70;4.18;;;25.30;99.90;;;28.32;89.84;95369.00;2109015;58;27336;-65
2021/09/05 07:26:30;;;;;;;4.50;4.00;;;25.80;99.90;;;28.58;88.56;95367.00;2314478;57;26744;-66
2021/09/05 07:29:18;;;;;;;4.78;4.37;;;26.10;99.90;;;28.59;81.20;95373.00;2111322;58;25136;-66
2021/09/05 07:32:06;;;;;;;5.15;4.75;;;25.80;99.90;;;28.22;84.50;95371.00;2311674;57;25993;-66
2021/09/05 07:34:53;;;;;;;4.93;4.47;;;26.30;99.90;;;28.20;87.75;95379.00;2109843;58;27230;-65
2021/09/05 07:37:44;;;;;;;5.37;4.65;;;26.20;99.90;;;27.65;90.23;95372.00;2312991;57;27627;-66
2021/09/05 07:40:31;;;;;;;5.25;4.50;;;26.40;99.90;;;28.62;84.71;95378.00;2112507;58;25847;-65
2021/09/05 07:43:17;;;;;;;5.62;4.53;;;26.40;99.90;;;28.47;86.64;95376.00;2314321;57;26738;-66
2021/09/05 07:46:03;;;;;;;4.85;4.45;;;26.20;99.90;;;28.04;96.71;95372.00;2107711;58;27013;-66
2021/09/05 07:48:50;;;;;;;4.90;4.50;;;26.10;99.90;;;28.67;93.30;95376.00;2304782;57;26733;-66
2021/09/05 07:54:33;;;;;;;4.72;4.20;;;26.70;99.90;;;29.47;83.69;95366.00;2419644;55;32895;-66
2021/09/05 07:57:20;;;;;;;4.80;4.30;;;26.80;99.90;;;29.37;89.71;95374.00;2184283;56;27429;-66
2021/09/05 08:00:09;;;;;;;4.95;4.55;;;27.00;99.90;;;29.73;82.02;95373.00;2400797;56;27296;-66
2021/09/05 08:02:56;;;;;;;4.95;4.45;;;27.50;99.90;;;30.69;73.33;95368.00;2184640;56;25525;-66
2021/09/05 08:05:42;;;;;;;5.35;4.85;;;28.00;99.90;;;30.14;77.89;95373.00;2399160;56;25663;-66
2021/09/05 08:11:26;;;;;;;5.70;5.20;;;27.70;99.90;;;30.44;80.89;95367.00;2430053;54;33769;-66
2021/09/05 08:17:11;;;;;;;5.10;4.70;;;28.30;99.90;;;31.00;77.51;95372.00;2408782;54;32784;-66
2021/09/05 08:19:57;;;;;;;5.32;4.90;;;28.30;99.90;;;30.30;67.81;95372.00;2398271;56;26236;-65
2021/09/05 08:22:46;;;;;;;5.32;4.90;;;28.30;99.90;;;30.39;72.42;95378.00;2184461;56;25131;-65
2021/09/05 08:25:32;;;;;;;5.32;4.68;;;27.90;99.90;;;30.06;77.77;95373.00;2420787;55;25704;-66
2021/09/05 08:28:19;;;;;;;4.90;4.50;;;28.00;99.90;;;30.53;70.86;95370.00;2168057;57;25221;-65
2021/09/05 08:31:06;;;;;;;4.85;4.45;;;28.40;99.90;;;30.99;75.57;95379.00;2206082;56;26057;-63
2021/09/05 08:33:52;;;;;;;4.68;4.28;;;28.60;99.90;;;30.79;74.56;95374.00;2429342;55;25116;-63
2021/09/05 08:36:39;;;;;;;5.15;4.57;;;29.30;99.90;;;31.02;68.95;95384.00;2201361;56;26160;-63
2021/09/05 08:39:27;;;;;;;5.12;4.62;;;29.50;99.90;;;30.80;77.34;95376.00;2434277;55;25642;-63
2021/09/05 08:42:15;;;;;;;4.80;4.37;;;29.10;99.90;;;30.70;67.16;95381.00;2213160;56;25739;-63
2021/09/05 08:45:03;;;;;;;6.07;4.47;;;28.60;99.90;;;29.55;78.80;95381.00;2437201;55;25800;-63
2021/09/05 08:47:50;;;;;;;5.70;4.78;;;28.30;99.90;;;29.97;73.99;95373.00;2214206;56;25701;-63
2021/09/05 08:50:36;;;;;;;5.15;4.75;;;28.40;99.90;;;30.36;81.49;95373.00;2436809;55;25642;-63
2021/09/05 08:53:23;;;;;;;5.55;4.45;;;28.60;99.90;;;30.60;69.68;95384.00;2214471;55;25958;-63
2021/09/05 08:56:10;;;;;;;5.00;4.50;;;29.20;99.90;;;31.21;77.90;95387.00;2214158;56;25627;-63
2021/09/05 09:01:56;;;;;;;5.25;4.75;;;29.80;99.90;;;30.65;65.71;95384.00;2377409;55;33149;-65
2021/09/05 09:04:44;;;;;;;5.03;4.53;;;29.80;99.90;;;30.65;74.90;95384.00;2175501;57;25653;-65
2021/09/05 09:07:31;;;;;;;5.62;4.93;;;29.90;99.90;;;31.20;73.89;95388.00;2404878;55;25765;-64
2021/09/05 09:10:17;;;;;;;4.95;4.55;;;30.00;99.90;;;31.14;76.82;95391.00;2401341;55;25390;-65
2021/09/05 09:16:08;;;;;;;5.80;4.55;;;30.50;99.90;;;32.93;63.65;95376.00;2427765;53;33280;-63
2021/09/05 09:21:53;;;;;;;5.70;4.68;;;30.80;99.90;;;33.13;56.62;95382.00;2368792;55;33133;-65
2021/09/05 09:24:41;;;;;;;5.70;4.45;;;30.70;99.90;;;32.73;55.98;95371.00;2366362;57;26316;-65
2021/09/05 09:27:29;;;;;;;5.18;4.75;;;30.90;99.90;;;33.03;57.00;95382.00;2157975;58;25612;-63
2021/09/05 09:30:16;;;;;;;4.82;4.32;;;30.80;99.90;;;33.09;54.25;95378.00;2369422;56;26269;-63
2021/09/05 09:36:01;;;;;;;5.07;4.60;;;31.20;99.90;;;34.68;57.84;95373.00;2362838;55;32992;-63
2021/09/05 09:38:56;;;;;;;4.60;4.30;;;31.60;99.90;;;34.69;48.51;95371.00;2156514;55;25892;-63
2021/09/05 09:41:42;;;;;;;4.55;3.97;;;31.50;99.90;;;35.10;56.13;95365.00;2188155;56;25601;-63
2021/09/05 09:47:37;;;;;;;4.78;4.20;;;32.10;99.90;;;35.41;50.84;95371.00;2351926;56;34173;-63
2021/09/05 09:50:23;;;;;;;4.65;4.22;;;31.30;99.90;;;34.09;44.67;95366.00;2135357;57;25686;-63
2021/09/05 09:53:10;;;;;;;4.60;4.12;;;31.20;99.90;;;34.18;49.63;95374.00;2145076;57;25826;-63
2021/09/05 09:58:57;;;;;;;5.07;4.68;;;31.40;99.90;;;34.69;43.49;95368.00;2335863;56;32921;-62
2021/09/05 10:01:44;;;;;;;5.05;4.40;;;31.20;99.90;;;34.04;46.92;95354.00;2115484;57;25592;-63
2021/09/05 10:04:31;;;;;;;6.20;4.57;;;30.80;99.90;;;33.84;53.23;95366.00;2314956;57;25625;-63
2021/09/05 10:07:20;;;;;;;4.65;4.25;;;31.40;99.90;;;35.20;49.77;95357.00;2156413;56;25574;-63
2021/09/05 10:10:11;;;;;;;5.05;4.55;;;31.60;99.90;;;35.27;46.30;95366.00;2365464;56;25519;-62
2021/09/05 10:12:59;;;;;;;4.57;4.25;;;32.00;99.90;;;35.66;41.82;95362.00;2147971;57;25644;-63
2021/09/05 10:15:45;;;;;;;5.53;4.55;;;31.90;99.90;;;36.07;48.06;95367.00;2154899;58;25588;-62
2021/09/05 10:21:34;;;;;;;4.60;4.20;;;32.80;99.90;;;37.52;41.17;95368.00;2344053;56;33289;-62
2021/09/05 10:27:26;;;;;;;4.55;4.15;;;33.20;99.90;;;37.52;36.67;95357.00;2440861;54;33168;-64
2021/09/05 10:30:20;;;;;;;4.78;4.37;;;32.80;99.90;;;36.68;37.70;95352.00;2419977;55;25610;-64
2021/09/05 10:33:07;;;;;;;5.03;4.53;;;32.30;99.90;;;35.75;43.25;95347.00;2204098;57;25816;-64
2021/09/05 10:36:03;;;;;;;4.68;4.18;;;32.60;99.90;;;36.07;36.89;95353.00;2417635;55;25756;-62
2021/09/05 10:38:50;;;;;;;5.07;4.15;;;32.50;99.90;;;36.69;37.33;95345.00;2458696;54;26302;-62
2021/09/05 10:41:50;;;;;;;4.70;4.30;;;32.40;99.90;;;36.60;39.31;95345.00;2235233;55;26302;-62
2021/09/05 10:45:03;;;;;;;6.07;4.30;;;32.80;99.90;;;37.56;37.93;95344.00;2462264;55;26180;-62
2021/09/05 10:47:49;;;;;;;5.75;4.50;;;33.00;99.90;;;37.62;37.00;95340.00;2177653;56;25777;-63
2021/09/05 10:50:38;;;;;;;4.50;4.10;;;33.10;99.90;;;37.01;37.61;95350.00;2183369;56;26261;-62
2021/09/05 10:53:24;;;;;;;5.90;4.15;;;32.50;99.90;;;36.13;41.58;95351.00;2394711;55;25591;-62
2021/09/05 10:59:12;;;;;;;4.65;4.25;;;32.30;99.90;;;36.02;37.51;95339.00;2425037;54;32654;-63
2021/09/05 11:02:01;;;;;;;4.47;4.07;;;31.30;99.90;;;33.99;41.18;95342.00;2408431;55;25069;-63
2021/09/05 11:04:47;;;;;;;4.40;4.00;;;31.50;99.90;;;34.95;39.52;95342.00;2186692;55;25723;-62
2021/09/05 11:07:34;;;;;;;4.30;3.90;;;32.00;99.90;;;35.88;39.84;95354.00;2415524;55;25777;-62
2021/09/05 11:10:49;;;;;;;4.90;4.40;;;31.90;99.90;;;35.42;38.47;95346.00;2197915;55;25761;-62
2021/09/05 11:13:49;;;;;;;4.93;4.50;;;32.30;99.90;;;35.67;36.68;95338.00;2421497;55;25613;-62
2021/09/05 11:19:32;;;;;;;5.12;3.90;;;31.90;99.90;;;35.65;37.88;95344.00;2382733;55;33317;-62
2021/09/05 11:22:21;;;;;;;4.55;4.15;;;33.10;99.90;;;35.14;36.83;95345.00;2353187;56;25607;-62
2021/09/05 11:25:18;;;;;;;5.10;4.50;;;31.40;99.90;;;32.43;39.89;95348.00;2149770;58;26855;-62
2021/09/05 11:28:07;;;;;;;4.60;4.20;;;31.50;99.90;;;33.37;41.04;95349.00;2149495;58;27317;-62
2021/09/05 11:30:59;;;;;;;4.47;4.07;;;31.90;99.90;;;32.90;41.05;95342.00;2365712;57;25747;-62
2021/09/05 11:33:45;;;;;;;4.20;3.87;;;31.40;99.90;;;31.80;42.81;95340.00;2157903;58;25586;-62
2021/09/05 11:36:32;;;;;;;4.15;3.78;;;30.80;99.90;;;31.42;54.50;95347.00;2157586;58;26802;-62
2021/09/05 11:39:18;;;;;;;4.30;3.90;;;30.60;99.90;;;30.93;47.57;95346.00;2367411;57;26597;-62
2021/09/05 11:42:08;;;;;;;4.65;4.25;;;30.80;99.90;;;31.35;42.29;95339.00;2147893;58;27033;-61
2021/09/05 11:45:03;;;;;;;4.55;4.15;;;30.10;99.90;;;29.46;51.12;95345.00;2360062;57;27183;-62
2021/09/05 11:50:45;;;;;;;4.10;3.70;;;29.20;99.90;;;29.56;59.18;95339.00;2385843;55;34444;-63
2021/09/05 11:53:32;;;;;;;4.28;3.80;;;29.50;99.90;;;29.63;55.14;95340.00;2361557;56;25881;-64
2021/09/05 11:59:15;;;;;;;4.47;4.07;;;30.10;99.90;;;30.52;52.71;95340.00;2397932;55;33877;-64
2021/09/05 12:02:02;;;;;;;4.40;3.92;;;29.90;99.90;;;30.10;55.82;95345.00;2365122;57;27452;-63
2021/09/05 12:07:45;;;;;;;5.72;3.60;;;28.20;99.90;;;27.85;55.82;95341.00;2415718;55;34525;-63
2021/09/05 12:10:33;;;;;;;3.50;3.20;;;27.00;99.90;;;26.78;73.03;95344.00;2179132;57;26717;-63
2021/09/05 12:13:20;;;;;;;4.45;4.00;;;26.20;99.90;;;26.26;66.38;95347.00;2402573;56;25656;-64
2021/09/05 12:16:22;;;;;;;6.40;3.83;;;26.30;99.90;;;26.42;72.68;95352.00;2183456;57;26931;-63
2021/09/05 12:19:09;;;;;;;4.47;3.50;;;26.50;99.90;;;26.97;70.72;95346.00;2185925;57;26792;-64
2021/09/05 12:21:59;;;;;;;4.15;3.75;;;26.50;99.90;;;26.90;71.13;95348.00;2402592;56;26653;-63
2021/09/05 12:24:55;;;;;;;4.22;3.72;;;26.60;99.90;;;26.98;74.18;95350.00;2186796;55;27619;-64
2021/09/05 12:27:53;;;;;;;4.70;3.70;;;26.00;99.90;;;26.15;71.83;95347.00;2390813;56;26732;-63
2021/09/05 12:30:48;;;;;;;4.18;3.75;;;26.10;99.90;;;26.42;73.88;95350.00;2182832;56;27078;-64
2021/09/05 12:36:33;;;;;;;3.97;3.58;;;27.00;99.90;;;27.61;72.93;95355.00;2479427;53;33352;-63
2021/09/05 12:39:22;;;;;;;4.45;3.53;;;27.00;99.90;;;27.42;69.92;95348.00;2228003;55;27253;-63
2021/09/05 12:42:10;;;;;;;3.90;3.25;;;27.20;99.90;;;27.83;71.22;95357.00;2456399;54;26694;-63
2021/09/05 12:45:02;;;;;;;4.05;3.65;;;27.30;99.90;;;27.61;62.26;95358.00;2224796;55;27278;-64
2021/09/05 12:47:49;;;;;;;4.93;4.00;;;27.30;99.90;;;27.69;59.70;95359.00;2194541;55;27472;-64
2021/09/05 12:50:35;;;;;;;3.85;3.55;;;26.90;99.90;;;27.13;60.27;95359.00;2173773;55;26733;-63
2021/09/05 12:53:21;;;;;;;4.25;3.80;;;27.00;99.90;;;27.50;73.30;95351.00;2416905;55;26836;-63
2021/09/05 12:56:08;;;;;;;17.73;4.15;;;27.30;99.90;;;28.01;70.99;95356.00;2197661;56;26808;-63
2021/09/05 12:58:54;;;;;;;4.97;3.72;;;27.10;99.90;;;27.56;64.64;95351.00;2201202;56;26627;-63
2021/09/05 13:01:41;;;;;;;4.10;3.70;;;26.90;99.90;;;27.24;66.82;95354.00;2202919;56;27370;-64
2021/09/05 13:04:28;;;;;;;3.85;3.53;;;26.80;99.90;;;26.98;59.26;95358.00;2196533;56;26616;-63
2021/09/05 13:07:14;;;;;;;4.22;3.83;;;26.60;99.90;;;26.87;60.14;95352.00;2201636;56;26756;-63
2021/09/05 13:10:01;;;;;;;3.50;3.20;;;26.50;99.90;;;26.74;60.38;95353.00;2431609;55;26725;-63
2021/09/05 13:12:47;;;;;;;4.10;3.60;;;26.50;99.90;;;26.89;63.09;95350.00;2211755;56;26842;-63
2021/09/05 13:15:33;;;;;;;4.68;3.60;;;26.60;99.90;;;27.00;72.35;95345.00;2208559;56;26959;-64
2021/09/05 13:18:20;;;;;;;4.22;3.83;;;26.60;99.90;;;27.11;72.94;95356.00;2210221;56;26727;-63
2021/09/05 13:24:05;;;;;;;5.57;3.78;;;26.60;99.90;;;27.24;69.12;95341.00;2371674;55;34090;-63
2021/09/05 13:29:49;;;;;;;4.10;3.70;;;26.40;99.90;;;26.95;69.84;95342.00;2445524;54;34070;-63
2021/09/05 13:32:35;;;;;;;4.25;3.45;;;26.40;99.90;;;26.92;66.01;95338.00;2438547;55;26981;-63
2021/09/05 13:38:22;;;;;;;5.53;3.90;;;25.90;99.90;;;26.29;71.17;95329.00;2394580;55;33740;-64
2021/09/05 13:41:09;;;;;;;4.40;4.00;;;25.70;99.90;;;26.11;72.74;95330.00;2156658;56;26852;-63
2021/09/05 13:46:52;;;;;;;4.82;3.95;;;24.90;99.90;;;25.42;68.50;95328.00;2368474;55;34684;-63
2021/09/05 13:49:38;;;;;;;4.15;3.72;;;25.00;99.90;;;25.45;71.47;95328.00;2125745;57;26674;-63
2021/09/05 13:55:23;;;;;;;4.25;3.85;;;25.00;99.90;;;25.86;71.63;95313.00;2405405;55;34631;-63
2021/09/05 13:58:09;;;;;;;4.80;3.83;;;25.20;99.90;;;25.96;65.57;95326.00;2361879;56;26827;-63
2021/09/05 14:00:56;;;;;;;4.05;3.65;;;25.20;99.90;;;25.76;65.05;95324.00;2138691;57;26978;-63
2021/09/05 14:03:42;;;;;;;4.22;3.60;;;24.90;99.90;;;25.48;68.66;95325.00;2347347;57;26687;-63
2021/09/05 14:06:28;;;;;;;4.45;3.80;;;24.60;99.90;;;24.94;72.48;95319.00;2140408;57;26135;-63
2021/09/05 14:09:14;;;;;;;4.72;3.85;;;24.00;99.90;;;24.38;76.80;95329.00;2348924;57;26771;-64
2021/09/05 14:12:01;;;;;;;4.10;3.70;;;23.90;99.90;;;24.53;79.58;95328.00;2186106;57;26811;-63
2021/09/05 14:14:47;;;;;;;4.47;4.07;;;23.90;99.90;;;24.44;84.63;95327.00;2185157;56;26673;-63
2021/09/05 14:17:34;;;;;;;4.22;3.80;;;23.80;99.90;;;24.47;85.14;95325.00;2389491;55;26723;-63